| time (UTC) | temp F | wind direction | speed MPH | gust MPH | rain 1hr in | rain 24hr in | rain mn in | humidity % | barometer mb |
| 20260506012052 | 60 | 128 | 0.0 | 1.0 | 0.05 | 0.38 | 0.38 | 79 | 1006.0 |
| 20260506011551 | 60 | 128 | 0.0 | 1.0 | 0.04 | 0.37 | 0.37 | 79 | 1005.9 |
| 20260506011053 | 60 | 128 | 0.0 | 1.0 | 0.03 | 0.36 | 0.36 | 79 | 1005.9 |
| 20260506010550 | 60 | 128 | 0.0 | 1.0 | 0.02 | 0.35 | 0.35 | 78 | 1006.0 |
| 20260506010056 | 60 | 128 | 0.0 | 0.0 | 0.01 | 0.34 | 0.34 | 78 | 1006.1 |
| 20260506005550 | 60 | 128 | 0.0 | 0.0 | 0.01 | 0.33 | 0.33 | 78 | 1005.7 |
| 20260506005050 | 60 | 128 | 0.0 | 1.0 | 0.01 | 0.33 | 0.33 | 78 | 1005.6 |
| 20260506004551 | 60 | 128 | 0.0 | 1.0 | 0.01 | 0.33 | 0.33 | 78 | 1005.4 |
| 20260506004049 | 60 | 128 | 0.0 | 1.0 | 0.02 | 0.33 | 0.33 | 78 | 1005.5 |
| 20260506003549 | 60 | 128 | 0.0 | 1.0 | 0.02 | 0.33 | 0.33 | 78 | 1005.4 |
| 20260506003049 | 60 | 128 | 0.0 | 2.0 | 0.02 | 0.33 | 0.33 | 78 | 1005.5 |
| 20260506002551 | 60 | 128 | 0.0 | 2.0 | 0.02 | 0.33 | 0.33 | 78 | 1005.5 |
| 20260506002049 | 60 | 128 | 0.0 | 0.0 | 0.02 | 0.33 | 0.33 | 78 | 1005.5 |
| 20260506001549 | 61 | 128 | 0.0 | 1.0 | 0.02 | 0.33 | 0.33 | 78 | 1005.3 |
| 20260506001049 | 61 | 128 | 0.0 | 1.0 | 0.02 | 0.33 | 0.33 | 78 | 1005.2 |
| 20260506000549 | 61 | 128 | 0.0 | 1.0 | 0.02 | 0.33 | 0.33 | 78 | 1005.0 |
| 20260506000048 | 61 | 128 | 0.0 | 1.0 | 0.02 | 0.33 | 0.33 | 78 | 1005.1 |
| 20260505235549 | 61 | 128 | 0.0 | 2.0 | 0.01 | 0.32 | 0.32 | 78 | 1005.3 |
| 20260505235048 | 61 | 128 | 0.0 | 2.0 | 0.01 | 0.32 | 0.32 | 78 | 1005.4 |
| 20260505234556 | 61 | 129 | 0.0 | 2.0 | 0.01 | 0.32 | 0.32 | 78 | 1005.2 |
| 20260505234047 | 61 | 129 | 0.0 | 2.0 | 0.00 | 0.31 | 0.31 | 78 | 1005.5 |
| 20260505233547 | 61 | 129 | 0.0 | 1.0 | 0.00 | 0.31 | 0.31 | 78 | 1005.5 |
| 20260505233059 | 61 | 129 | 0.0 | 0.0 | 0.00 | 0.31 | 0.31 | 78 | 1005.5 |
| 20260505232547 | 61 | 129 | 0.0 | 1.0 | 0.00 | 0.31 | 0.31 | 78 | 1005.4 |
| 20260505232049 | 61 | 129 | 0.0 | 3.0 | 0.00 | 0.31 | 0.31 | 78 | 1005.4 |
| 20260505231552 | 61 | 129 | 0.0 | 3.0 | 0.00 | 0.31 | 0.31 | 78 | 1005.6 |
| 20260505231046 | 61 | 128 | 0.0 | 1.0 | 0.00 | 0.31 | 0.31 | 77 | 1005.6 |
| 20260505230548 | 61 | 128 | 0.0 | 1.0 | 0.00 | 0.31 | 0.31 | 77 | 1005.7 |
| 20260505230046 | 61 | 128 | 0.0 | 3.0 | 0.00 | 0.31 | 0.31 | 77 | 1005.7 |
| 20260505225547 | 61 | 129 | 0.0 | 5.0 | 0.00 | 0.31 | 0.31 | 77 | 1005.8 |
| 20260505225046 | 61 | 131 | 0.0 | 5.0 | 0.00 | 0.31 | 0.31 | 77 | 1005.8 |
| 20260505224546 | 61 | 159 | 1.0 | 6.0 | 0.01 | 0.31 | 0.31 | 76 | 1006.0 |
| 20260505224048 | 61 | 138 | 1.0 | 6.0 | 0.01 | 0.31 | 0.31 | 76 | 1006.0 |
| 20260505223545 | 61 | 125 | 0.0 | 2.0 | 0.01 | 0.31 | 0.31 | 76 | 1006.2 |
| 20260505223052 | 61 | 125 | 0.0 | 3.0 | 0.01 | 0.31 | 0.31 | 76 | 1006.2 |
| 20260505222547 | 61 | 126 | 0.0 | 4.0 | 0.02 | 0.31 | 0.31 | 76 | 1006.2 |
| 20260505222044 | 61 | 126 | 0.0 | 4.0 | 0.02 | 0.31 | 0.31 | 75 | 1006.2 |
| 20260505221546 | 61 | 151 | 0.0 | 1.0 | 0.03 | 0.31 | 0.31 | 75 | 1006.3 |
| 20260505221044 | 62 | 151 | 0.0 | 5.0 | 0.04 | 0.31 | 0.31 | 75 | 1006.4 |
| 20260505220548 | 62 | 151 | 0.0 | 5.0 | 0.05 | 0.31 | 0.31 | 74 | 1006.5 |
| 20260505220043 | 62 | 340 | 0.0 | 1.0 | 0.06 | 0.31 | 0.31 | 74 | 1006.6 |
| 20260505215543 | 62 | 340 | 0.0 | 1.0 | 0.07 | 0.31 | 0.31 | 74 | 1006.6 |
| 20260505215044 | 62 | 340 | 0.0 | 1.0 | 0.07 | 0.31 | 0.31 | 74 | 1006.6 |
| 20260505214549 | 62 | 340 | 0.0 | 1.0 | 0.07 | 0.30 | 0.30 | 74 | 1006.6 |
| 20260505214043 | 62 | 328 | 0.0 | 1.0 | 0.08 | 0.30 | 0.30 | 73 | 1006.6 |
| 20260505213543 | 62 | 326 | 0.0 | 1.0 | 0.09 | 0.30 | 0.30 | 73 | 1006.6 |
| 20260505213043 | 62 | 326 | 0.0 | 2.0 | 0.09 | 0.30 | 0.30 | 73 | 1006.6 |
| 20260505212543 | 62 | 316 | 0.0 | 2.0 | 0.09 | 0.28 | 0.28 | 72 | 1006.6 |
| 20260505212042 | 62 | 346 | 0.0 | 2.0 | 0.10 | 0.28 | 0.28 | 72 | 1006.6 |
| 20260505211542 | 62 | 347 | 0.0 | 2.0 | 0.09 | 0.28 | 0.28 | 72 | 1006.6 |
| 20260505211045 | 62 | 48 | 0.0 | 3.0 | 0.10 | 0.27 | 0.27 | 72 | 1006.6 |
| 20260505210541 | 62 | 49 | 0.0 | 3.0 | 0.09 | 0.26 | 0.26 | 72 | 1006.6 |
| 20260505210042 | 63 | 65 | 0.0 | 2.0 | 0.10 | 0.25 | 0.25 | 71 | 1006.6 |
| 20260505205542 | 63 | 309 | 0.0 | 1.0 | 0.12 | 0.24 | 0.24 | 71 | 1006.6 |
| 20260505205041 | 63 | 309 | 0.0 | 2.0 | 0.15 | 0.23 | 0.23 | 71 | 1006.7 |
| 20260505204545 | 63 | 309 | 0.0 | 3.0 | 0.17 | 0.22 | 0.22 | 71 | 1006.7 |
| 20260505204041 | 64 | 323 | 0.0 | 3.0 | 0.17 | 0.22 | 0.22 | 70 | 1006.8 |
| 20260505203543 | 64 | 307 | 0.0 | 3.0 | 0.16 | 0.21 | 0.21 | 70 | 1006.8 |
| 20260505203041 | 64 | 248 | 0.0 | 3.0 | 0.15 | 0.20 | 0.20 | 70 | 1006.8 |
| 20260505202544 | 65 | 215 | 0.0 | 2.0 | 0.14 | 0.19 | 0.19 | 69 | 1006.9 |
| 20260505202042 | 65 | 213 | 0.0 | 1.0 | 0.14 | 0.19 | 0.19 | 68 | 1006.8 |
| 20260505201540 | 66 | 227 | 0.0 | 3.0 | 0.13 | 0.18 | 0.18 | 68 | 1006.9 |
| 20260505201040 | 66 | 226 | 0.0 | 3.0 | 0.12 | 0.17 | 0.17 | 67 | 1006.7 |
| 20260505200540 | 67 | 234 | 0.0 | 2.0 | 0.11 | 0.16 | 0.16 | 67 | 1006.7 |
| 20260505200046 | 67 | 238 | 0.0 | 2.0 | 0.10 | 0.15 | 0.15 | 66 | 1006.8 |
| 20260505195539 | 68 | 238 | 0.0 | 5.0 | 0.06 | 0.11 | 0.11 | 65 | 1006.8 |
| 20260505195038 | 68 | 229 | 2.0 | 7.0 | 0.02 | 0.07 | 0.07 | 64 | 1007.0 |
| 20260505194539 | 68 | 254 | 2.0 | 7.0 | 0.00 | 0.05 | 0.05 | 62 | 1006.9 |
| 20260505194038 | 68 | 286 | 0.0 | 4.0 | 0.00 | 0.05 | 0.05 | 62 | 1006.6 |
| 20260505193538 | 68 | 205 | 0.0 | 4.0 | 0.00 | 0.05 | 0.05 | 62 | 1006.6 |
| 20260505193037 | 68 | 191 | 0.0 | 2.0 | 0.00 | 0.05 | 0.05 | 62 | 1006.5 |
| 20260505192538 | 68 | 117 | 0.0 | 4.0 | 0.00 | 0.05 | 0.05 | 62 | 1006.6 |
| 20260505192036 | 68 | 46 | 0.0 | 4.0 | 0.00 | 0.05 | 0.05 | 61 | 1006.5 |
| 20260505191540 | 68 | 190 | 0.0 | 3.0 | 0.00 | 0.05 | 0.05 | 62 | 1006.6 |
| 20260505191037 | 68 | 190 | 1.0 | 3.0 | 0.00 | 0.05 | 0.05 | 62 | 1006.6 |
| 20260505190534 | 68 | 53 | 0.0 | 3.0 | 0.00 | 0.05 | 0.05 | 61 | 1006.6 |
| 20260505190038 | 68 | 59 | 0.0 | 6.0 | 0.00 | 0.05 | 0.05 | 61 | 1006.7 |
| 20260505185535 | 68 | 298 | 0.0 | 6.0 | 0.00 | 0.05 | 0.05 | 62 | 1006.6 |
| 20260505185034 | 68 | 328 | 0.0 | 8.0 | 0.00 | 0.05 | 0.05 | 62 | 1006.6 |
| 20260505184534 | 68 | 137 | 1.0 | 7.0 | 0.00 | 0.05 | 0.05 | 62 | 1006.8 |
| 20260505184034 | 68 | 91 | 0.0 | 4.0 | 0.00 | 0.05 | 0.05 | 62 | 1006.8 |
| 20260505183533 | 68 | 174 | 0.0 | 5.0 | 0.00 | 0.05 | 0.05 | 61 | 1006.9 |
| 20260505183038 | 68 | 182 | 0.0 | 5.0 | 0.00 | 0.05 | 0.05 | 61 | 1006.9 |
| 20260505182533 | 68 | 306 | 1.0 | 4.0 | 0.00 | 0.05 | 0.05 | 61 | 1007.0 |
| 20260505182032 | 68 | 298 | 1.0 | 4.0 | 0.00 | 0.05 | 0.05 | 60 | 1007.0 |
| 20260505181532 | 68 | 49 | 0.0 | 4.0 | 0.00 | 0.05 | 0.05 | 61 | 1007.2 |
| 20260505181031 | 68 | 135 | 0.0 | 4.0 | 0.00 | 0.05 | 0.05 | 60 | 1007.4 |
| 20260505180531 | 68 | 123 | 1.0 | 3.0 | 0.00 | 0.05 | 0.05 | 60 | 1007.2 |
| 20260505180034 | 67 | 55 | 1.0 | 8.0 | 0.00 | 0.05 | 0.05 | 61 | 1007.3 |
| 20260505175531 | 67 | 153 | 1.0 | 8.0 | 0.00 | 0.05 | 0.05 | 61 | 1007.2 |
| 20260505175031 | 67 | 140 | 0.0 | 4.0 | 0.00 | 0.05 | 0.05 | 61 | 1007.3 |
| 20260505174538 | 67 | 240 | 0.0 | 4.0 | 0.00 | 0.05 | 0.05 | 62 | 1007.5 |
| 20260505174029 | 67 | 53 | 0.0 | 4.0 | 0.00 | 0.05 | 0.05 | 62 | 1007.5 |
| 20260505173527 | 67 | 90 | 0.0 | 3.0 | 0.00 | 0.05 | 0.05 | 62 | 1007.5 |
| 20260505173028 | 67 | 90 | 1.0 | 3.0 | 0.00 | 0.05 | 0.05 | 61 | 1007.6 |
| 20260505172527 | 67 | 86 | 1.0 | 3.0 | 0.00 | 0.05 | 0.05 | 61 | 1007.6 |
| 20260505172028 | 67 | 305 | 0.0 | 6.0 | 0.00 | 0.05 | 0.05 | 61 | 1007.6 |
| 20260505171527 | 66 | 125 | 1.0 | 6.0 | 0.00 | 0.05 | 0.05 | 60 | 1007.6 |
| 20260505171029 | 66 | 130 | 1.0 | 4.0 | 0.00 | 0.05 | 0.05 | 60 | 1007.6 |
| 20260505170526 | 66 | 162 | 0.0 | 5.0 | 0.00 | 0.05 | 0.05 | 60 | 1007.7 |
| 20260505170026 | 66 | 134 | 1.0 | 5.0 | 0.00 | 0.05 | 0.05 | 61 | 1007.7 |
| 20260505165526 | 66 | 30 | 0.0 | 2.0 | 0.00 | 0.05 | 0.05 | 61 | 1007.7 |
| 20260505165126 | 66 | 30 | 0.0 | 3.0 | 0.00 | 0.05 | 0.05 | 60 | 1007.6 |
| 20260505164526 | 66 | 349 | 0.0 | 3.0 | 0.00 | 0.05 | 0.05 | 61 | 1007.7 |
| 20260505164028 | 67 | 297 | 0.0 | 3.0 | 0.00 | 0.05 | 0.05 | 61 | 1007.6 |
| 20260505163528 | 67 | 350 | 0.0 | 0.0 | 0.00 | 0.05 | 0.05 | 61 | 1007.6 |
| 20260505163026 | 67 | 288 | 0.0 | 0.0 | 0.00 | 0.05 | 0.05 | 61 | 1007.7 |
| 20260505162525 | 67 | 288 | 0.0 | 1.0 | 0.00 | 0.05 | 0.05 | 62 | 1007.8 |
| 20260505162025 | 67 | 288 | 0.0 | 3.0 | 0.00 | 0.05 | 0.05 | 62 | 1007.7 |
| 20260505161525 | 67 | 288 | 0.0 | 3.0 | 0.00 | 0.05 | 0.05 | 62 | 1007.8 |
| 20260505161029 | 67 | 244 | 0.0 | 3.0 | 0.00 | 0.05 | 0.05 | 62 | 1007.7 |
| 20260505160525 | 67 | 313 | 0.0 | 3.0 | 0.00 | 0.05 | 0.05 | 62 | 1007.7 |
| 20260505153021 | 66 | 83 | 0.0 | 4.0 | 0.00 | 0.05 | 0.05 | 66 | 1007.3 |
| 20260505152521 | 65 | 84 | 0.0 | 4.0 | 0.00 | 0.05 | 0.05 | 66 | 1007.3 |
| 20260505152022 | 65 | 148 | 1.0 | 7.0 | 0.00 | 0.05 | 0.05 | 66 | 1007.3 |
| 20260505151520 | 64 | 346 | 2.0 | 7.0 | 0.00 | 0.05 | 0.05 | 67 | 1007.3 |
| 20260505151020 | 64 | 204 | 0.0 | 4.0 | 0.00 | 0.05 | 0.05 | 69 | 1007.5 |
| 20260505150518 | 64 | 135 | 0.0 | 4.0 | 0.00 | 0.05 | 0.05 | 69 | 1007.5 |
| 20260505140512 | 60 | 109 | 0.0 | 4.0 | 0.00 | 0.05 | 0.05 | 77 | 1006.9 |
| 20260505125006 | 59 | 64 | 0.0 | 2.0 | 0.00 | 0.05 | 0.05 | 78 | 1007.3 |
| 20260505124505 | 59 | 51 | 0.0 | 1.0 | 0.00 | 0.05 | 0.05 | 77 | 1007.5 |
| 20260505124005 | 59 | 78 | 0.0 | 1.0 | 0.00 | 0.05 | 0.05 | 77 | 1007.6 |
| 20260505123505 | 59 | 78 | 0.0 | 3.0 | 0.00 | 0.05 | 0.05 | 77 | 1007.7 |
| 20260505123002 | 58 | 78 | 0.0 | 3.0 | 0.01 | 0.05 | 0.05 | 76 | 1007.6 |
| 20260505122502 | 58 | 152 | 0.0 | 1.0 | 0.01 | 0.05 | 0.05 | 76 | 1007.7 |
| 20260505122002 | 58 | 153 | 0.0 | 1.0 | 0.01 | 0.05 | 0.05 | 76 | 1007.8 |
| 20260505121501 | 58 | 153 | 0.0 | 2.0 | 0.01 | 0.05 | 0.05 | 75 | 1007.8 |
| 20260505121103 | 58 | 153 | 0.0 | 2.0 | 0.01 | 0.05 | 0.05 | 75 | 1007.7 |
| 20260505120559 | 58 | 155 | 0.0 | 2.0 | 0.01 | 0.05 | 0.05 | 74 | 1007.9 |
| 20260505120116 | 58 | 155 | 0.0 | 2.0 | 0.02 | 0.05 | 0.05 | 74 | 1008.0 |
| 20260505115557 | 58 | 96 | 0.0 | 2.0 | 0.02 | 0.05 | 0.05 | 74 | 1007.9 |
| 20260505115100 | 58 | 95 | 0.0 | 1.0 | 0.02 | 0.05 | 0.05 | 73 | 1007.9 |
| 20260505114554 | 58 | 95 | 0.0 | 1.0 | 0.02 | 0.05 | 0.05 | 73 | 1007.9 |
| 20260505114054 | 58 | 95 | 0.0 | 1.0 | 0.02 | 0.05 | 0.05 | 73 | 1007.9 |
| 20260505113553 | 58 | 95 | 0.0 | 1.0 | 0.02 | 0.05 | 0.05 | 73 | 1007.7 |
| 20260505113059 | 58 | 95 | 0.0 | 2.0 | 0.02 | 0.04 | 0.04 | 73 | 1007.1 |
| 20260505112557 | 58 | 96 | 0.0 | 2.0 | 0.03 | 0.04 | 0.04 | 73 | 1006.9 |
| 20260505112051 | 58 | 95 | 0.0 | 2.0 | 0.04 | 0.04 | 0.04 | 72 | 1007.0 |
| 20260505111549 | 58 | 93 | 0.0 | 2.0 | 0.04 | 0.04 | 0.04 | 72 | 1007.0 |
| 20260505111048 | 59 | 15 | 0.0 | 1.0 | 0.04 | 0.04 | 0.04 | 71 | 1007.2 |
| 20260505110548 | 59 | 15 | 0.0 | 0.0 | 0.04 | 0.04 | 0.04 | 71 | 1007.2 |
| 20260505102040 | 61 | 14 | 0.0 | 2.0 | 0.00 | 0.00 | 0.00 | 66 | 1007.7 |
| 20260505101539 | 61 | 14 | 0.0 | 4.0 | 0.00 | 0.00 | 0.00 | 66 | 1007.8 |
| 20260505101039 | 61 | 15 | 0.0 | 4.0 | 0.00 | 0.00 | 0.00 | 65 | 1007.9 |
| 20260505100539 | 61 | 319 | 1.0 | 5.0 | 0.00 | 0.00 | 0.00 | 64 | 1008.0 |
| 20260505100038 | 61 | 319 | 1.0 | 5.0 | 0.00 | 0.00 | 0.00 | 63 | 1008.0 |
| 20260505095537 | 61 | 316 | 1.0 | 5.0 | 0.00 | 0.00 | 0.00 | 62 | 1007.7 |
| 20260505095036 | 61 | 311 | 1.0 | 3.0 | 0.00 | 0.00 | 0.00 | 61 | 1007.6 |
| 20260505094537 | 61 | 168 | 0.0 | 1.0 | 0.00 | 0.00 | 0.00 | 60 | 1007.5 |
| 20260505094034 | 61 | 168 | 0.0 | 0.0 | 0.00 | 0.00 | 0.00 | 60 | 1007.2 |
| 20260505093533 | 61 | 168 | 0.0 | 0.0 | 0.00 | 0.00 | 0.00 | 60 | 1007.1 |
| 20260505093033 | 61 | 168 | 0.0 | 0.0 | 0.00 | 0.00 | 0.00 | 60 | 1007.1 |
| 20260505092534 | 61 | 168 | 0.0 | 0.0 | 0.00 | 0.00 | 0.00 | 60 | 1006.9 |
| 20260505092032 | 61 | 168 | 0.0 | 0.0 | 0.00 | 0.00 | 0.00 | 60 | 1006.8 |
| 20260505091531 | 61 | 168 | 0.0 | 3.0 | 0.00 | 0.00 | 0.00 | 60 | 1006.8 |
| 20260505091033 | 61 | 168 | 0.0 | 3.0 | 0.00 | 0.00 | 0.00 | 60 | 1006.6 |
| 20260505090630 | 61 | 119 | 0.0 | 1.0 | 0.00 | 0.00 | 0.00 | 60 | 1006.6 |
| 20260505090035 | 61 | 119 | 0.0 | 2.0 | 0.00 | 0.00 | 0.00 | 60 | 1006.5 |
| 20260505085531 | 61 | 119 | 0.0 | 2.0 | 0.00 | 0.00 | 0.00 | 60 | 1006.4 |
| 20260505085028 | 61 | 119 | 0.0 | 3.0 | 0.00 | 0.00 | 0.00 | 59 | 1006.4 |
| 20260505084528 | 61 | 119 | 0.0 | 2.0 | 0.00 | 0.00 | 0.00 | 60 | 1006.3 |
| 20260505084027 | 61 | 119 | 0.0 | 3.0 | 0.00 | 0.00 | 0.00 | 60 | 1006.3 |
| 20260505083526 | 61 | 119 | 0.0 | 3.0 | 0.00 | 0.00 | 0.00 | 59 | 1006.3 |
| 20260505083025 | 61 | 119 | 0.0 | 2.0 | 0.00 | 0.00 | 0.00 | 59 | 1006.2 |
| 20260505082525 | 61 | 119 | 0.0 | 2.0 | 0.00 | 0.00 | 0.00 | 59 | 1006.1 |
| 20260505082026 | 62 | 119 | 0.0 | 0.0 | 0.00 | 0.00 | 0.00 | 58 | 1006.1 |
| 20260505081537 | 62 | 119 | 0.0 | 0.0 | 0.00 | 0.00 | 0.00 | 58 | 1006.1 |
| 20260505081024 | 62 | 119 | 0.0 | 0.0 | 0.00 | 0.00 | 0.00 | 58 | 1006.0 |
| 20260505080524 | 62 | 119 | 0.0 | 2.0 | 0.00 | 0.00 | 0.00 | 58 | 1006.0 |
| 20260505080027 | 62 | 119 | 0.0 | 2.0 | 0.00 | 0.00 | 0.00 | 58 | 1006.1 |
| 20260505075521 | 62 | 119 | 0.0 | 0.0 | 0.00 | 0.00 | 0.00 | 58 | 1006.0 |
| 20260505075025 | 62 | 119 | 0.0 | 0.0 | 0.00 | 0.00 | 0.00 | 58 | 1006.1 |
| 20260505074623 | 62 | 119 | 0.0 | 0.0 | 0.00 | 0.00 | 0.00 | 58 | 1006.1 |
| 20260505074019 | 62 | 119 | 0.0 | 0.0 | 0.00 | 0.00 | 0.00 | 57 | 1005.9 |
| 20260505073520 | 62 | 119 | 0.0 | 0.0 | 0.00 | 0.00 | 0.00 | 57 | 1005.8 |
| 20260505073023 | 63 | 119 | 0.0 | 2.0 | 0.00 | 0.00 | 0.00 | 57 | 1005.7 |
| 20260505072518 | 63 | 119 | 0.0 | 2.0 | 0.00 | 0.00 | 0.00 | 57 | 1005.6 |
| 20260505072018 | 63 | 119 | 0.0 | 2.0 | 0.00 | 0.00 | 0.00 | 56 | 1005.5 |
| 20260505071534 | 63 | 118 | 0.0 | 2.0 | 0.00 | 0.00 | 0.00 | 57 | 1005.4 |
| 20260505071017 | 63 | 118 | 0.0 | 2.0 | 0.00 | 0.00 | 0.00 | 56 | 1005.6 |
| 20260505070517 | 63 | 118 | 0.0 | 2.0 | 0.00 | 0.00 | 0.00 | 56 | 1005.6 |
| 20260505070017 | 63 | 118 | 0.0 | 3.0 | 0.00 | 0.00 | 0.00 | 56 | 1005.5 |
| 20260505065516 | 63 | 118 | 0.0 | 3.0 | 0.00 | 0.00 | 0.00 | 56 | 1005.5 |
| 20260505065016 | 63 | 166 | 0.0 | 3.0 | 0.00 | 0.00 | 0.00 | 56 | 1005.5 |
| 20260505064522 | 63 | 172 | 0.0 | 2.0 | 0.00 | 0.00 | 0.00 | 56 | 1005.5 |
| 20260505064019 | 63 | 173 | 0.0 | 3.0 | 0.00 | 0.00 | 0.00 | 56 | 1005.5 |
| 20260505063515 | 63 | 173 | 0.0 | 3.0 | 0.00 | 0.00 | 0.00 | 56 | 1005.6 |
| 20260505063015 | 63 | 215 | 0.0 | 3.0 | 0.00 | 0.00 | 0.00 | 56 | 1005.7 |
| 20260505062516 | 63 | 215 | 0.0 | 3.0 | 0.00 | 0.00 | 0.00 | 56 | 1005.6 |
| 20260505062014 | 64 | 293 | 0.0 | 2.0 | 0.00 | 0.00 | 0.00 | 56 | 1005.7 |
| 20260505061513 | 64 | 293 | 0.0 | 3.0 | 0.00 | 0.00 | 0.00 | 55 | 1005.6 |
| 20260505061017 | 64 | 293 | 0.0 | 3.0 | 0.00 | 0.00 | 0.00 | 55 | 1005.4 |
| 20260505060512 | 64 | 115 | 0.0 | 2.0 | 0.00 | 0.00 | 0.00 | 55 | 1005.4 |
| 20260505060011 | 64 | 115 | 0.0 | 3.0 | 0.00 | 0.00 | 0.00 | 55 | 1005.3 |
| 20260505055511 | 64 | 115 | 0.0 | 2.0 | 0.00 | 0.00 | 0.00 | 55 | 1005.2 |
| 20260505055011 | 64 | 115 | 0.0 | 8.0 | 0.00 | 0.00 | 0.00 | 55 | 1005.1 |
| 20260505054511 | 64 | 125 | 0.0 | 2.0 | 0.00 | 0.00 | 0.00 | 55 | 1005.0 |
| 20260505054011 | 65 | 126 | 0.0 | 3.0 | 0.00 | 0.00 | 0.00 | 55 | 1005.0 |
| 20260505053510 | 65 | 142 | 1.0 | 4.0 | 0.00 | 0.00 | 0.00 | 54 | 1005.1 |
| 20260505053009 | 65 | 119 | 0.0 | 4.0 | 0.00 | 0.00 | 0.00 | 55 | 1005.0 |
| 20260505052511 | 65 | 139 | 1.0 | 4.0 | 0.00 | 0.00 | 0.00 | 54 | 1004.8 |
| 20260505052007 | 65 | 140 | 1.0 | 4.0 | 0.00 | 0.00 | 0.00 | 54 | 1004.9 |
| 20260505051507 | 65 | 138 | 1.0 | 4.0 | 0.00 | 0.00 | 0.00 | 54 | 1005.1 |
| 20260505051008 | 65 | 90 | 1.0 | 4.0 | 0.00 | 0.00 | 0.00 | 54 | 1005.2 |
| 20260505050505 | 65 | 66 | 0.0 | 2.0 | 0.00 | 0.00 | 0.00 | 54 | 1005.3 |
| 20260505041601 | 66 | 142 | 0.0 | 2.0 | 0.00 | 0.00 | 0.00 | 56 | 1005.6 |
| 20260505041100 | 66 | 142 | 0.0 | 5.0 | 0.00 | 0.00 | 0.00 | 55 | 1005.7 |
| 20260505040602 | 66 | 88 | 0.0 | 5.0 | 0.00 | 0.00 | 0.00 | 55 | 1005.7 |
| 20260505040105 | 66 | 116 | 0.0 | 0.0 | 0.00 | 0.00 | 0.00 | 54 | 1005.7 |
| 20260505035558 | 66 | 116 | 0.0 | 1.0 | 0.00 | 0.00 | 0.00 | 55 | 1005.8 |
| 20260505035057 | 66 | 116 | 0.0 | 2.0 | 0.00 | 0.00 | 0.00 | 55 | 1005.8 |
| 20260505034558 | 66 | 116 | 0.0 | 2.0 | 0.00 | 0.00 | 0.00 | 55 | 1005.7 |
| 20260505034057 | 66 | 117 | 0.0 | 2.0 | 0.00 | 0.00 | 0.00 | 55 | 1005.7 |
| 20260505033557 | 66 | 115 | 0.0 | 1.0 | 0.00 | 0.00 | 0.00 | 55 | 1005.7 |
| 20260505033059 | 66 | 115 | 0.0 | 1.0 | 0.00 | 0.00 | 0.00 | 55 | 1005.6 |
| 20260505032556 | 66 | 115 | 0.0 | 3.0 | 0.00 | 0.00 | 0.00 | 55 | 1005.5 |
| 20260505032055 | 65 | 115 | 0.0 | 3.0 | 0.00 | 0.00 | 0.00 | 55 | 1005.6 |
| 20260505031558 | 65 | 117 | 0.0 | 3.0 | 0.00 | 0.00 | 0.00 | 55 | 1005.5 |
| 20260505031055 | 65 | 141 | 0.0 | 3.0 | 0.00 | 0.00 | 0.00 | 55 | 1005.4 |
| 20260505030555 | 65 | 140 | 0.0 | 3.0 | 0.00 | 0.00 | 0.00 | 55 | 1005.4 |
| 20260505030100 | 65 | 140 | 0.0 | 3.0 | 0.00 | 0.00 | 0.00 | 55 | 1005.2 |
| 20260505025556 | 65 | 140 | 0.0 | 3.0 | 0.00 | 0.00 | 0.00 | 55 | 1005.1 |
| 20260505025055 | 66 | 140 | 0.0 | 3.0 | 0.00 | 0.00 | 0.00 | 55 | 1005.0 |
| 20260505024555 | 66 | 141 | 0.0 | 3.0 | 0.00 | 0.00 | 0.00 | 55 | 1005.1 |
| 20260505024054 | 66 | 141 | 0.0 | 2.0 | 0.00 | 0.00 | 0.00 | 55 | 1005.0 |
| 20260505023554 | 66 | 141 | 0.0 | 2.0 | 0.00 | 0.00 | 0.00 | 55 | 1004.9 |
| 20260505023058 | 66 | 140 | 0.0 | 2.0 | 0.00 | 0.00 | 0.00 | 54 | 1004.8 |
| 20260505022554 | 66 | 140 | 0.0 | 2.0 | 0.00 | 0.00 | 0.00 | 54 | 1004.8 |
| 20260505022053 | 66 | 140 | 0.0 | 2.0 | 0.00 | 0.00 | 0.00 | 54 | 1004.8 |
| 20260505021557 | 67 | 140 | 0.0 | 2.0 | 0.00 | 0.00 | 0.00 | 53 | 1004.7 |
| 20260505021053 | 67 | 140 | 0.0 | 2.0 | 0.00 | 0.00 | 0.00 | 53 | 1004.7 |
| 20260505020552 | 67 | 145 | 0.0 | 2.0 | 0.00 | 0.00 | 0.00 | 53 | 1004.5 |
| 20260505020056 | 67 | 145 | 0.0 | 3.0 | 0.00 | 0.00 | 0.00 | 53 | 1004.5 |
| 20260505015552 | 67 | 145 | 0.0 | 3.0 | 0.00 | 0.00 | 0.00 | 53 | 1004.5 |
| 20260505015055 | 67 | 148 | 0.0 | 3.0 | 0.00 | 0.00 | 0.00 | 52 | 1004.5 |
| 20260505014552 | 67 | 148 | 0.0 | 3.0 | 0.00 | 0.00 | 0.00 | 52 | 1004.5 |
| 20260505014051 | 67 | 148 | 1.0 | 3.0 | 0.00 | 0.00 | 0.00 | 52 | 1004.4 |
| 20260505013552 | 67 | 151 | 0.0 | 3.0 | 0.00 | 0.00 | 0.00 | 51 | 1004.4 |
| 20260505013051 | 68 | 151 | 1.0 | 3.0 | 0.00 | 0.00 | 0.00 | 51 | 1004.2 |
| 20260505012552 | 68 | 151 | 0.0 | 2.0 | 0.00 | 0.00 | 0.00 | 51 | 1004.2 |